createdAt,value
2019-04-11T00:00:04.538Z,69.8
2019-04-11T00:15:04.826Z,69.4
2019-04-11T00:30:04.174Z,69.6
2019-04-11T00:45:05.511Z,69.2
2019-04-11T01:00:04.948Z,69
2019-04-11T01:15:05.077Z,69.1
2019-04-11T01:30:06.234Z,68.7
2019-04-11T01:45:05.521Z,68.3
2019-04-11T02:00:06.087Z,68.1
2019-04-11T02:15:04.329Z,68.1
2019-04-11T02:45:42.549Z,67.6
2019-04-11T03:00:12.851Z,66.7
2019-04-11T03:15:37.159Z,66.8
2019-04-11T03:30:15.114Z,66.5
2019-04-11T03:45:47.711Z,66
2019-04-11T04:00:06.563Z,65.8
2019-04-11T04:15:08.986Z,65.6
2019-04-11T04:30:13.106Z,65.6
2019-04-11T04:45:09.416Z,65.4
2019-04-11T05:00:07.292Z,65.1
2019-04-11T05:15:04.694Z,65.3
2019-04-11T05:45:09.824Z,65.2
2019-04-11T06:00:05.651Z,65.1
2019-04-11T06:15:06.052Z,65.3
2019-04-11T06:30:10.634Z,64.7
2019-04-11T06:45:04.444Z,64.4
2019-04-11T07:00:05.323Z,64.3
2019-04-11T07:15:04.607Z,64.1
2019-04-11T07:30:05.335Z,64.5
2019-04-11T07:45:04.607Z,64
2019-04-11T08:00:04.449Z,64
2019-04-11T08:15:05.114Z,64.2
2019-04-11T08:30:04.901Z,63.9
2019-04-11T08:45:04.668Z,63.3
2019-04-11T09:00:04.319Z,63.3
2019-04-11T09:15:04.574Z,63.7
2019-04-11T09:30:04.575Z,63.5
2019-04-11T09:45:05.557Z,63.5
2019-04-11T10:00:04.285Z,63.3
2019-04-11T10:15:05.215Z,63.2
2019-04-11T10:30:04.623Z,62.6
2019-04-11T10:45:04.988Z,62.7
2019-04-11T11:00:05.252Z,62.7
2019-04-11T11:15:04.510Z,62.9
2019-04-11T11:30:06.287Z,62.7
2019-04-11T11:45:05.672Z,62.9
2019-04-11T12:00:05.112Z,62.7
2019-04-11T12:15:04.596Z,62.7
2019-04-11T12:30:09.034Z,63
2019-04-11T12:45:06.693Z,62.9
2019-04-11T13:00:04.534Z,63
2019-04-11T13:15:04.834Z,63.3
2019-04-11T13:30:04.394Z,63.1
2019-04-11T13:45:04.176Z,63.3
2019-04-11T14:00:04.554Z,63.2
2019-04-11T14:15:06.989Z,63.2
2019-04-11T14:30:04.648Z,63.1
2019-04-11T14:45:06.443Z,63.1
2019-04-11T15:00:04.241Z,63.2
2019-04-11T15:15:04.925Z,63
2019-04-11T15:30:04.405Z,62.9
2019-04-11T15:45:04.733Z,62.7
2019-04-11T16:00:04.932Z,62.6
2019-04-11T16:15:04.680Z,62.8
2019-04-11T16:30:10.139Z,62.7
2019-04-11T16:45:04.526Z,62.6
2019-04-11T17:00:04.831Z,62.7
2019-04-11T17:15:04.165Z,62.8
2019-04-11T17:30:04.665Z,62.5
2019-04-11T17:45:04.986Z,62.5
2019-04-11T18:00:04.274Z,62.6
2019-04-11T18:15:04.558Z,62.6
2019-04-11T18:30:04.557Z,62.6
2019-04-11T18:45:04.806Z,62.7
2019-04-11T19:00:08.087Z,62.6
2019-04-11T19:15:04.966Z,62.5
2019-04-11T19:30:04.475Z,62
2019-04-11T19:45:04.718Z,62.2
2019-04-11T20:00:06.230Z,62.2
2019-04-11T20:15:06.565Z,62.2
2019-04-11T20:30:04.348Z,62
2019-04-11T20:45:04.564Z,61.9
2019-04-11T21:00:04.818Z,61.9
2019-04-11T21:15:05.065Z,62.1
2019-04-11T21:30:04.404Z,61.6
2019-04-11T21:45:06.963Z,61.7
2019-04-11T22:00:04.302Z,62.2
2019-04-11T22:15:04.893Z,61.9
2019-04-11T22:30:04.313Z,62.4
2019-04-11T22:45:08.920Z,62.3
2019-04-11T23:00:04.597Z,62.2
2019-04-11T23:15:04.532Z,62.4
2019-04-11T23:30:04.573Z,62.3
2019-04-11T23:45:04.812Z,62.4
